Terminal Aerodrome Forecast
Issued by NWS

Home | Current Version | Previous Version | Text Only | Print | Product List | Glossary On
Versions: 1 2 3 4 5 6 7 8 9 10 11 12 13 14 15 16 17 18 19 20
000
FTUS44 KLZK 280500 AAA
TAFPBF
TAF AMD
KPBF 280559Z 2806/2906 VRB03KT P6SM BKN110
     FM281200 11006KT P6SM SCT050 OVC100
     FM281600 11008KT P6SM SCT030 OVC050 PROB30 2816/2820 -RA
     FM282000 10009KT P6SM OVC050
     FM290000 09007KT P6SM SCT060 BKN250=

USA.gov is the U.S. government's official web portal to all federal, state and local government web resources and services.